sensor_id;sensor_type;location;lat;lon;timestamp;pressure;altitude;pressure_sealevel;temperature;humidity
8758;BME280;4415;42.152;24.744;2023-07-31T00:01:58;98906.84;;;24.91;nan
8758;BME280;4415;42.152;24.744;2023-07-31T00:04:23;98922.66;;;24.87;nan
8758;BME280;4415;42.152;24.744;2023-07-31T00:06:49;98915.56;;;24.83;nan
8758;BME280;4415;42.152;24.744;2023-07-31T00:09:14;98923.44;;;24.84;nan
8758;BME280;4415;42.152;24.744;2023-07-31T00:11:39;98916.31;;;24.76;nan
8758;BME280;4415;42.152;24.744;2023-07-31T00:14:05;98888.72;;;24.69;nan
8758;BME280;4415;42.152;24.744;2023-07-31T00:16:30;98910.84;;;24.80;nan
8758;BME280;4415;42.152;24.744;2023-07-31T00:18:55;98890.28;;;24.70;nan
8758;BME280;4415;42.152;24.744;2023-07-31T00:23:46;98928.97;;;24.81;nan
8758;BME280;4415;42.152;24.744;2023-07-31T00:26:11;98923.06;;;24.82;nan
8758;BME280;4415;42.152;24.744;2023-07-31T00:28:37;98926.59;;;24.86;nan
8758;BME280;4415;42.152;24.744;2023-07-31T00:31:02;98926.56;;;24.97;nan
8758;BME280;4415;42.152;24.744;2023-07-31T00:33:30;98924.25;;;24.88;nan
8758;BME280;4415;42.152;24.744;2023-07-31T00:35:56;98921.06;;;24.86;nan
8758;BME280;4415;42.152;24.744;2023-07-31T00:38:21;98917.13;;;24.87;nan
8758;BME280;4415;42.152;24.744;2023-07-31T00:40:46;98976.34;;;24.90;nan
8758;BME280;4415;42.152;24.744;2023-07-31T00:43:12;98925.00;;;24.92;nan
8758;BME280;4415;42.152;24.744;2023-07-31T00:45:37;98924.97;;;24.99;nan
8758;BME280;4415;42.152;24.744;2023-07-31T00:48:04;98930.50;;;25.06;nan
8758;BME280;4415;42.152;24.744;2023-07-31T00:50:31;98939.13;;;25.15;nan
8758;BME280;4415;42.152;24.744;2023-07-31T00:52:56;98948.63;;;25.07;nan
8758;BME280;4415;42.152;24.744;2023-07-31T00:55:22;98944.69;;;25.08;nan
8758;BME280;4415;42.152;24.744;2023-07-31T00:57:48;98948.66;;;24.97;nan
8758;BME280;4415;42.152;24.744;2023-07-31T01:00:13;98911.59;;;24.77;nan
8758;BME280;4415;42.152;24.744;2023-07-31T01:02:39;98939.25;;;24.80;nan
8758;BME280;4415;42.152;24.744;2023-07-31T01:05:04;98919.50;;;24.67;nan
8758;BME280;4415;42.152;24.744;2023-07-31T01:10:09;98940.81;;;24.81;nan
8758;BME280;4415;42.152;24.744;2023-07-31T01:12:38;98943.94;;;24.72;nan
8758;BME280;4415;42.152;24.744;2023-07-31T01:15:04;98952.66;;;24.75;nan
8758;BME280;4415;42.152;24.744;2023-07-31T01:19:59;98937.66;;;24.79;nan
8758;BME280;4415;42.152;24.744;2023-07-31T01:25:04;98949.47;;;24.76;nan
8758;BME280;4415;42.152;24.744;2023-07-31T01:27:36;98926.63;;;24.72;nan
8758;BME280;4415;42.152;24.744;2023-07-31T01:30:15;98923.44;;;24.77;nan
8758;BME280;4415;42.152;24.744;2023-07-31T01:32:42;98937.66;;;24.93;nan
8758;BME280;4415;42.152;24.744;2023-07-31T01:35:08;98936.09;;;24.85;nan
8758;BME280;4415;42.152;24.744;2023-07-31T01:37:34;98947.91;;;24.93;nan
8758;BME280;4415;42.152;24.744;2023-07-31T01:40:00;98952.63;;;24.96;nan
8758;BME280;4415;42.152;24.744;2023-07-31T01:42:25;98942.34;;;25.00;nan
8758;BME280;4415;42.152;24.744;2023-07-31T01:44:50;98951.81;;;25.02;nan
8758;BME280;4415;42.152;24.744;2023-07-31T01:47:16;98948.66;;;25.04;nan
8758;BME280;4415;42.152;24.744;2023-07-31T01:49:41;98943.91;;;25.04;nan
8758;BME280;4415;42.152;24.744;2023-07-31T01:52:07;98915.53;;;24.86;nan
8758;BME280;4415;42.152;24.744;2023-07-31T01:54:32;98942.38;;;24.96;nan
8758;BME280;4415;42.152;24.744;2023-07-31T01:56:58;98933.72;;;24.87;nan
8758;BME280;4415;42.152;24.744;2023-07-31T02:01:49;98919.50;;;24.75;nan
8758;BME280;4415;42.152;24.744;2023-07-31T02:04:14;98913.22;;;24.60;nan
8758;BME280;4415;42.152;24.744;2023-07-31T02:06:40;98931.31;;;24.75;nan
8758;BME280;4415;42.152;24.744;2023-07-31T02:09:05;98938.44;;;24.76;nan
8758;BME280;4415;42.152;24.744;2023-07-31T02:11:30;98948.72;;;24.79;nan
8758;BME280;4415;42.152;24.744;2023-07-31T02:13:56;98947.88;;;24.75;nan
8758;BME280;4415;42.152;24.744;2023-07-31T02:16:21;98936.06;;;24.71;nan
8758;BME280;4415;42.152;24.744;2023-07-31T02:18:47;98919.53;;;24.53;nan
8758;BME280;4415;42.152;24.744;2023-07-31T02:21:12;98944.75;;;24.62;nan
8758;BME280;4415;42.152;24.744;2023-07-31T02:23:37;98912.81;;;24.61;nan
8758;BME280;4415;42.152;24.744;2023-07-31T02:26:03;98924.25;;;24.67;nan
8758;BME280;4415;42.152;24.744;2023-07-31T02:28:29;98933.69;;;24.77;nan
8758;BME280;4415;42.152;24.744;2023-07-31T02:30:54;98934.50;;;24.73;nan
8758;BME280;4415;42.152;24.744;2023-07-31T02:33:19;98921.06;;;24.76;nan
8758;BME280;4415;42.152;24.744;2023-07-31T02:35:45;98921.88;;;24.80;nan
8758;BME280;4415;42.152;24.744;2023-07-31T02:38:10;98909.25;;;24.79;nan
8758;BME280;4415;42.152;24.744;2023-07-31T02:43:01;98918.69;;;24.99;nan
8758;BME280;4415;42.152;24.744;2023-07-31T02:45:26;98906.03;;;24.98;nan
8758;BME280;4415;42.152;24.744;2023-07-31T02:50:17;98909.22;;;24.96;nan
8758;BME280;4415;42.152;24.744;2023-07-31T02:52:42;98888.69;;;24.83;nan
8758;BME280;4415;42.152;24.744;2023-07-31T02:55:08;98916.28;;;25.01;nan
8758;BME280;4415;42.152;24.744;2023-07-31T02:57:33;98913.91;;;25.06;nan
8758;BME280;4415;42.152;24.744;2023-07-31T03:02:24;98899.72;;;24.97;nan
8758;BME280;4415;42.152;24.744;2023-07-31T03:04:49;98890.22;;;25.02;nan
8758;BME280;4415;42.152;24.744;2023-07-31T03:07:15;98889.53;;;24.80;nan
8758;BME280;4415;42.152;24.744;2023-07-31T03:09:40;98909.97;;;25.04;nan
8758;BME280;4415;42.152;24.744;2023-07-31T03:12:06;98902.84;;;24.99;nan
8758;BME280;4415;42.152;24.744;2023-07-31T03:14:31;98913.94;;;24.92;nan
8758;BME280;4415;42.152;24.744;2023-07-31T03:16:57;98905.25;;;24.97;nan
8758;BME280;4415;42.152;24.744;2023-07-31T03:19:22;98902.13;;;24.81;nan
8758;BME280;4415;42.152;24.744;2023-07-31T03:21:47;98917.97;;;24.28;nan
8758;BME280;4415;42.152;24.744;2023-07-31T03:24:13;98896.63;;;23.72;nan
8758;BME280;4415;42.152;24.744;2023-07-31T03:29:06;98806.34;;;23.30;nan
8758;BME280;4415;42.152;24.744;2023-07-31T03:31:32;98920.13;;;23.27;nan
8758;BME280;4415;42.152;24.744;2023-07-31T03:33:57;98927.97;;;23.25;nan
8758;BME280;4415;42.152;24.744;2023-07-31T03:36:23;98918.50;;;23.15;nan
8758;BME280;4415;42.152;24.744;2023-07-31T03:38:48;98924.03;;;23.15;nan
8758;BME280;4415;42.152;24.744;2023-07-31T03:41:13;98939.00;;;23.25;nan
8758;BME280;4415;42.152;24.744;2023-07-31T03:43:39;98936.63;;;23.20;nan
8758;BME280;4415;42.152;24.744;2023-07-31T03:46:04;99021.66;;;23.18;nan
8758;BME280;4415;42.152;24.744;2023-07-31T03:48:30;98936.56;;;23.06;nan
8758;BME280;4415;42.152;24.744;2023-07-31T03:50:55;98952.31;;;23.09;nan
8758;BME280;4415;42.152;24.744;2023-07-31T03:53:21;98958.56;;;23.02;nan
8758;BME280;4415;42.152;24.744;2023-07-31T03:55:46;98982.22;;;23.10;nan
8758;BME280;4415;42.152;24.744;2023-07-31T03:58:11;98980.63;;;23.06;nan
8758;BME280;4415;42.152;24.744;2023-07-31T04:00:37;98973.53;;;23.01;nan
8758;BME280;4415;42.152;24.744;2023-07-31T04:03:02;98970.34;;;22.96;nan
8758;BME280;4415;42.152;24.744;2023-07-31T04:05:30;98982.25;;;23.14;nan
8758;BME280;4415;42.152;24.744;2023-07-31T04:10:20;98968.91;;;23.19;nan
8758;BME280;4415;42.152;24.744;2023-07-31T04:12:45;98986.19;;;23.13;nan
8758;BME280;4415;42.152;24.744;2023-07-31T04:15:11;98974.38;;;23.09;nan
8758;BME280;4415;42.152;24.744;2023-07-31T04:17:36;98985.41;;;23.16;nan
8758;BME280;4415;42.152;24.744;2023-07-31T04:20:02;98998.00;;;23.13;nan
8758;BME280;4415;42.152;24.744;2023-07-31T04:22:27;98967.97;;;22.94;nan
8758;BME280;4415;42.152;24.744;2023-07-31T04:24:53;98989.28;;;23.01;nan
8758;BME280;4415;42.152;24.744;2023-07-31T04:27:18;98989.25;;;22.97;nan
8758;BME280;4415;42.152;24.744;2023-07-31T04:32:11;98975.91;;;22.99;nan
8758;BME280;4415;42.152;24.744;2023-07-31T04:39:27;98999.63;;;23.21;nan
8758;BME280;4415;42.152;24.744;2023-07-31T04:41:52;99000.44;;;23.29;nan
8758;BME280;4415;42.152;24.744;2023-07-31T04:44:18;99017.03;;;23.36;nan
8758;BME280;4415;42.152;24.744;2023-07-31T04:46:43;99007.59;;;23.37;nan
8758;BME280;4415;42.152;24.744;2023-07-31T04:49:08;99002.06;;;23.33;nan
8758;BME280;4415;42.152;24.744;2023-07-31T04:51:34;98983.09;;;23.25;nan
8758;BME280;4415;42.152;24.744;2023-07-31T04:53:59;99080.94;;;23.52;nan
8758;BME280;4415;42.152;24.744;2023-07-31T04:56:24;98992.00;;;23.76;nan
8758;BME280;4415;42.152;24.744;2023-07-31T04:58:50;98988.09;;;23.91;nan
8758;BME280;4415;42.152;24.744;2023-07-31T05:01:15;98998.38;;;24.05;nan
8758;BME280;4415;42.152;24.744;2023-07-31T05:08:31;99012.66;;;24.67;nan
8758;BME280;4415;42.152;24.744;2023-07-31T05:10:56;98981.88;;;24.51;nan
8758;BME280;4415;42.152;24.744;2023-07-31T05:18:14;99011.84;;;24.73;nan
8758;BME280;4415;42.152;24.744;2023-07-31T05:20:40;98987.38;;;24.68;nan
8758;BME280;4415;42.152;24.744;2023-07-31T05:23:05;98987.38;;;24.65;nan
8758;BME280;4415;42.152;24.744;2023-07-31T05:27:56;99009.47;;;24.65;nan
8758;BME280;4415;42.152;24.744;2023-07-31T05:35:12;99005.09;;;26.14;nan
8758;BME280;4415;42.152;24.744;2023-07-31T05:37:37;99017.44;;;27.39;nan
8758;BME280;4415;42.152;24.744;2023-07-31T05:40:03;99016.28;;;27.71;nan
8758;BME280;4415;42.152;24.744;2023-07-31T05:42:29;99021.97;;;27.60;nan
8758;BME280;4415;42.152;24.744;2023-07-31T05:44:54;99029.88;;;27.61;nan
8758;BME280;4415;42.152;24.744;2023-07-31T05:47:19;99027.44;;;27.67;nan
8758;BME280;4415;42.152;24.744;2023-07-31T05:49:45;99027.63;;;27.49;nan
8758;BME280;4415;42.152;24.744;2023-07-31T05:52:10;99014.19;;;27.48;nan
8758;BME280;4415;42.152;24.744;2023-07-31T05:54:36;99029.38;;;28.00;nan
8758;BME280;4415;42.152;24.744;2023-07-31T05:57:01;99029.56;;;29.36;nan
8758;BME280;4415;42.152;24.744;2023-07-31T05:59:27;99027.69;;;30.60;nan
8758;BME280;4415;42.152;24.744;2023-07-31T06:01:52;99025.50;;;32.74;nan
8758;BME280;4415;42.152;24.744;2023-07-31T06:04:18;99034.13;;;34.13;nan
8758;BME280;4415;42.152;24.744;2023-07-31T06:06:43;99028.03;;;35.40;nan
8758;BME280;4415;42.152;24.744;2023-07-31T06:09:08;99011.44;;;35.87;nan
8758;BME280;4415;42.152;24.744;2023-07-31T06:11:34;99008.94;;;35.80;nan
8758;BME280;4415;42.152;24.744;2023-07-31T06:13:59;99017.72;;;37.52;nan
8758;BME280;4415;42.152;24.744;2023-07-31T06:16:25;99017.09;;;38.50;nan
8758;BME280;4415;42.152;24.744;2023-07-31T06:18:50;99001.69;;;38.51;nan
8758;BME280;4415;42.152;24.744;2023-07-31T06:21:16;99015.69;;;37.96;nan
8758;BME280;4415;42.152;24.744;2023-07-31T06:23:42;99022.97;;;38.17;nan
8758;BME280;4415;42.152;24.744;2023-07-31T06:26:08;99023.88;;;38.58;nan
8758;BME280;4415;42.152;24.744;2023-07-31T06:28:33;99012.94;;;39.98;nan
8758;BME280;4415;42.152;24.744;2023-07-31T06:30:58;99016.22;;;41.01;nan
8758;BME280;4415;42.152;24.744;2023-07-31T06:33:24;99007.97;;;40.98;nan
8758;BME280;4415;42.152;24.744;2023-07-31T06:35:50;99031.22;;;41.13;nan
8758;BME280;4415;42.152;24.744;2023-07-31T06:38:16;99022.91;;;40.93;nan
8758;BME280;4415;42.152;24.744;2023-07-31T06:40:41;99021.78;;;41.33;nan
8758;BME280;4415;42.152;24.744;2023-07-31T06:43:06;98993.88;;;40.61;nan
8758;BME280;4415;42.152;24.744;2023-07-31T06:45:35;99012.38;;;40.57;nan
8758;BME280;4415;42.152;24.744;2023-07-31T06:48:01;99047.06;;;41.42;nan
8758;BME280;4415;42.152;24.744;2023-07-31T06:50:33;99016.69;;;41.64;nan
8758;BME280;4415;42.152;24.744;2023-07-31T06:52:58;99084.09;;;41.92;nan
8758;BME280;4415;42.152;24.744;2023-07-31T06:55:25;98977.66;;;41.26;nan
8758;BME280;4415;42.152;24.744;2023-07-31T06:57:52;99002.50;;;41.59;nan
8758;BME280;4415;42.152;24.744;2023-07-31T07:00:19;99006.16;;;42.37;nan
8758;BME280;4415;42.152;24.744;2023-07-31T07:02:46;99002.63;;;43.00;nan
8758;BME280;4415;42.152;24.744;2023-07-31T07:05:12;99008.28;;;43.11;nan
8758;BME280;4415;42.152;24.744;2023-07-31T07:07:38;99013.88;;;42.09;nan
8758;BME280;4415;42.152;24.744;2023-07-31T07:10:04;99002.31;;;42.18;nan
8758;BME280;4415;42.152;24.744;2023-07-31T07:12:31;99002.09;;;41.12;nan
8758;BME280;4415;42.152;24.744;2023-07-31T07:14:56;99003.06;;;40.93;nan
8758;BME280;4415;42.152;24.744;2023-07-31T07:17:23;99021.31;;;41.62;nan
8758;BME280;4415;42.152;24.744;2023-07-31T07:19:49;99010.91;;;40.04;nan
8758;BME280;4415;42.152;24.744;2023-07-31T07:22:14;99032.81;;;39.52;nan
8758;BME280;4415;42.152;24.744;2023-07-31T07:24:40;99026.16;;;39.81;nan
8758;BME280;4415;42.152;24.744;2023-07-31T07:27:05;99022.59;;;39.86;nan
8758;BME280;4415;42.152;24.744;2023-07-31T07:29:31;99016.28;;;39.05;nan
8758;BME280;4415;42.152;24.744;2023-07-31T07:31:56;99015.25;;;38.67;nan
8758;BME280;4415;42.152;24.744;2023-07-31T07:34:24;99017.03;;;39.20;nan
8758;BME280;4415;42.152;24.744;2023-07-31T07:36:49;99015.47;;;39.45;nan
8758;BME280;4415;42.152;24.744;2023-07-31T07:39:14;99013.22;;;39.74;nan
8758;BME280;4415;42.152;24.744;2023-07-31T07:41:40;99024.69;;;39.91;nan
8758;BME280;4415;42.152;24.744;2023-07-31T07:44:05;99014.97;;;39.66;nan
8758;BME280;4415;42.152;24.744;2023-07-31T07:46:31;99018.88;;;38.18;nan
8758;BME280;4415;42.152;24.744;2023-07-31T07:48:56;99017.25;;;39.42;nan
8758;BME280;4415;42.152;24.744;2023-07-31T07:51:22;99017.38;;;39.53;nan
8758;BME280;4415;42.152;24.744;2023-07-31T07:53:47;99002.53;;;39.84;nan
8758;BME280;4415;42.152;24.744;2023-07-31T07:56:12;99007.84;;;39.51;nan
8758;BME280;4415;42.152;24.744;2023-07-31T07:58:38;99007.09;;;39.30;nan
8758;BME280;4415;42.152;24.744;2023-07-31T08:01:03;99010.97;;;38.72;nan
8758;BME280;4415;42.152;24.744;2023-07-31T08:03:28;99011.63;;;38.47;nan
8758;BME280;4415;42.152;24.744;2023-07-31T08:06:00;99001.91;;;38.48;nan
8758;BME280;4415;42.152;24.744;2023-07-31T08:08:27;99013.13;;;39.17;nan
8758;BME280;4415;42.152;24.744;2023-07-31T08:10:52;98998.63;;;39.56;nan
8758;BME280;4415;42.152;24.744;2023-07-31T08:13:18;99014.81;;;40.43;nan
8758;BME280;4415;42.152;24.744;2023-07-31T08:15:43;98995.41;;;39.94;nan
8758;BME280;4415;42.152;24.744;2023-07-31T08:18:09;98989.53;;;40.71;nan
8758;BME280;4415;42.152;24.744;2023-07-31T08:20:35;98979.31;;;40.42;nan
8758;BME280;4415;42.152;24.744;2023-07-31T08:23:00;99003.22;;;41.32;nan
8758;BME280;4415;42.152;24.744;2023-07-31T08:25:25;98988.03;;;40.81;nan
8758;BME280;4415;42.152;24.744;2023-07-31T08:27:51;98989.09;;;41.59;nan
8758;BME280;4415;42.152;24.744;2023-07-31T08:30:18;98971.94;;;41.15;nan
8758;BME280;4415;42.152;24.744;2023-07-31T08:32:44;98960.75;;;41.93;nan
8758;BME280;4415;42.152;24.744;2023-07-31T08:35:09;98981.06;;;40.03;nan
8758;BME280;4415;42.152;24.744;2023-07-31T08:37:35;99008.44;;;38.74;nan
8758;BME280;4415;42.152;24.744;2023-07-31T08:40:00;98997.63;;;40.10;nan
8758;BME280;4415;42.152;24.744;2023-07-31T08:42:26;98994.91;;;40.27;nan
8758;BME280;4415;42.152;24.744;2023-07-31T08:44:52;98991.34;;;40.32;nan
8758;BME280;4415;42.152;24.744;2023-07-31T08:47:19;98975.06;;;41.17;nan
8758;BME280;4415;42.152;24.744;2023-07-31T08:49:46;98976.72;;;41.74;nan
8758;BME280;4415;42.152;24.744;2023-07-31T08:52:12;98990.34;;;41.42;nan
8758;BME280;4415;42.152;24.744;2023-07-31T08:54:37;98977.22;;;41.55;nan
8758;BME280;4415;42.152;24.744;2023-07-31T08:57:05;98966.41;;;42.04;nan
8758;BME280;4415;42.152;24.744;2023-07-31T08:59:34;98981.44;;;40.47;nan
8758;BME280;4415;42.152;24.744;2023-07-31T09:02:05;98976.81;;;39.30;nan
8758;BME280;4415;42.152;24.744;2023-07-31T09:04:31;98973.00;;;39.39;nan
8758;BME280;4415;42.152;24.744;2023-07-31T09:07:00;98985.88;;;39.40;nan
8758;BME280;4415;42.152;24.744;2023-07-31T09:09:26;98990.06;;;38.14;nan
8758;BME280;4415;42.152;24.744;2023-07-31T09:11:51;98992.44;;;39.52;nan
8758;BME280;4415;42.152;24.744;2023-07-31T09:14:18;98972.66;;;40.09;nan
8758;BME280;4415;42.152;24.744;2023-07-31T09:16:55;98989.38;;;38.89;nan
8758;BME280;4415;42.152;24.744;2023-07-31T09:19:29;98993.66;;;40.33;nan
8758;BME280;4415;42.152;24.744;2023-07-31T09:21:55;98977.72;;;39.68;nan
8758;BME280;4415;42.152;24.744;2023-07-31T09:24:28;98962.38;;;39.80;nan
8758;BME280;4415;42.152;24.744;2023-07-31T09:26:54;98957.97;;;40.47;nan
8758;BME280;4415;42.152;24.744;2023-07-31T09:29:24;98968.19;;;40.76;nan
8758;BME280;4415;42.152;24.744;2023-07-31T09:31:50;98973.38;;;39.47;nan
8758;BME280;4415;42.152;24.744;2023-07-31T09:34:16;98975.31;;;38.74;nan
8758;BME280;4415;42.152;24.744;2023-07-31T09:36:48;98963.53;;;40.73;nan
8758;BME280;4415;42.152;24.744;2023-07-31T09:39:14;98964.63;;;41.79;nan
8758;BME280;4415;42.152;24.744;2023-07-31T09:41:46;98955.06;;;40.84;nan
8758;BME280;4415;42.152;24.744;2023-07-31T09:44:12;98935.88;;;41.16;nan
8758;BME280;4415;42.152;24.744;2023-07-31T09:46:38;98955.91;;;40.90;nan
8758;BME280;4415;42.152;24.744;2023-07-31T09:49:08;98942.94;;;40.78;nan
8758;BME280;4415;42.152;24.744;2023-07-31T09:51:41;98941.69;;;39.63;nan
8758;BME280;4415;42.152;24.744;2023-07-31T09:54:15;98958.44;;;39.00;nan
8758;BME280;4415;42.152;24.744;2023-07-31T09:56:43;98955.50;;;39.86;nan
8758;BME280;4415;42.152;24.744;2023-07-31T09:59:11;98963.50;;;40.25;nan
8758;BME280;4415;42.152;24.744;2023-07-31T10:01:38;98961.88;;;40.49;nan
8758;BME280;4415;42.152;24.744;2023-07-31T10:04:04;98941.28;;;39.50;nan
8758;BME280;4415;42.152;24.744;2023-07-31T10:06:31;98950.47;;;38.58;nan
8758;BME280;4415;42.152;24.744;2023-07-31T10:08:58;98961.91;;;37.56;nan
8758;BME280;4415;42.152;24.744;2023-07-31T10:11:26;98943.09;;;38.46;nan
8758;BME280;4415;42.152;24.744;2023-07-31T10:13:53;98861.03;;;39.47;nan
8758;BME280;4415;42.152;24.744;2023-07-31T10:16:20;98910.84;;;40.02;nan
8758;BME280;4415;42.152;24.744;2023-07-31T10:18:47;98933.53;;;41.08;nan
8758;BME280;4415;42.152;24.744;2023-07-31T10:21:13;98927.34;;;40.45;nan
8758;BME280;4415;42.152;24.744;2023-07-31T10:23:39;98923.03;;;40.13;nan
8758;BME280;4415;42.152;24.744;2023-07-31T10:26:07;98925.00;;;40.44;nan
8758;BME280;4415;42.152;24.744;2023-07-31T10:28:32;98932.28;;;41.26;nan
8758;BME280;4415;42.152;24.744;2023-07-31T10:31:01;98927.13;;;40.12;nan
8758;BME280;4415;42.152;24.744;2023-07-31T10:33:27;98891.78;;;40.92;nan
8758;BME280;4415;42.152;24.744;2023-07-31T10:36:12;98915.16;;;40.82;nan
8758;BME280;4415;42.152;24.744;2023-07-31T10:38:38;98899.84;;;41.55;nan
8758;BME280;4415;42.152;24.744;2023-07-31T10:41:10;98905.00;;;41.90;nan
8758;BME280;4415;42.152;24.744;2023-07-31T10:43:37;98895.47;;;41.98;nan
8758;BME280;4415;42.152;24.744;2023-07-31T10:46:11;98883.22;;;40.87;nan
8758;BME280;4415;42.152;24.744;2023-07-31T10:48:39;98893.66;;;41.34;nan
8758;BME280;4415;42.152;24.744;2023-07-31T10:51:11;98889.44;;;40.91;nan
8758;BME280;4415;42.152;24.744;2023-07-31T10:53:38;98885.47;;;39.76;nan
8758;BME280;4415;42.152;24.744;2023-07-31T10:56:08;98886.59;;;39.89;nan
8758;BME280;4415;42.152;24.744;2023-07-31T10:58:34;98881.63;;;39.79;nan
8758;BME280;4415;42.152;24.744;2023-07-31T11:01:03;98876.72;;;39.79;nan
8758;BME280;4415;42.152;24.744;2023-07-31T11:03:49;98876.91;;;39.39;nan
8758;BME280;4415;42.152;24.744;2023-07-31T11:06:16;98882.34;;;39.43;nan
8758;BME280;4415;42.152;24.744;2023-07-31T11:08:43;98880.34;;;38.97;nan
8758;BME280;4415;42.152;24.744;2023-07-31T11:11:11;98861.66;;;39.25;nan
8758;BME280;4415;42.152;24.744;2023-07-31T11:16:07;98894.75;;;36.87;nan
8758;BME280;4415;42.152;24.744;2023-07-31T11:18:32;98909.09;;;35.43;nan
8758;BME280;4415;42.152;24.744;2023-07-31T11:20:58;98903.63;;;33.91;nan
8758;BME280;4415;42.152;24.744;2023-07-31T11:23:23;98912.34;;;33.31;nan
8758;BME280;4415;42.152;24.744;2023-07-31T11:25:50;98911.31;;;32.48;nan
8758;BME280;4415;42.152;24.744;2023-07-31T11:28:17;98912.09;;;32.01;nan
8758;BME280;4415;42.152;24.744;2023-07-31T11:30:43;98907.56;;;31.91;nan
8758;BME280;4415;42.152;24.744;2023-07-31T11:33:11;98904.13;;;32.00;nan
8758;BME280;4415;42.152;24.744;2023-07-31T11:35:45;98885.00;;;31.98;nan
8758;BME280;4415;42.152;24.744;2023-07-31T11:38:12;98891.28;;;32.49;nan
8758;BME280;4415;42.152;24.744;2023-07-31T11:40:44;98900.38;;;33.09;nan
8758;BME280;4415;42.152;24.744;2023-07-31T11:43:10;98915.56;;;33.51;nan
8758;BME280;4415;42.152;24.744;2023-07-31T11:45:39;98905.91;;;32.66;nan
8758;BME280;4415;42.152;24.744;2023-07-31T11:48:05;98900.38;;;33.09;nan
8758;BME280;4415;42.152;24.744;2023-07-31T11:50:33;98906.59;;;33.35;nan
8758;BME280;4415;42.152;24.744;2023-07-31T11:53:00;98881.75;;;33.37;nan
8758;BME280;4415;42.152;24.744;2023-07-31T11:55:28;98890.09;;;33.06;nan
8758;BME280;4415;42.152;24.744;2023-07-31T11:57:57;98884.53;;;32.12;nan
8758;BME280;4415;42.152;24.744;2023-07-31T12:00:23;98887.97;;;33.41;nan
8758;BME280;4415;42.152;24.744;2023-07-31T12:02:50;98883.66;;;33.49;nan
8758;BME280;4415;42.152;24.744;2023-07-31T12:05:15;98879.66;;;33.90;nan
8758;BME280;4415;42.152;24.744;2023-07-31T12:07:52;98866.25;;;33.02;nan
8758;BME280;4415;42.152;24.744;2023-07-31T12:10:31;98881.19;;;32.64;nan
8758;BME280;4415;42.152;24.744;2023-07-31T12:12:58;98865.97;;;32.18;nan
8758;BME280;4415;42.152;24.744;2023-07-31T12:15:42;98879.91;;;32.78;nan
8758;BME280;4415;42.152;24.744;2023-07-31T12:20:34;98868.00;;;33.08;nan
8758;BME280;4415;42.152;24.744;2023-07-31T12:23:00;98869.75;;;32.93;nan
8758;BME280;4415;42.152;24.744;2023-07-31T12:25:32;98865.47;;;33.01;nan
8758;BME280;4415;42.152;24.744;2023-07-31T12:28:03;98846.72;;;32.67;nan
8758;BME280;4415;42.152;24.744;2023-07-31T12:30:33;98855.72;;;32.84;nan
8758;BME280;4415;42.152;24.744;2023-07-31T12:33:04;98863.44;;;32.46;nan
8758;BME280;4415;42.152;24.744;2023-07-31T12:35:38;98848.25;;;33.33;nan
8758;BME280;4415;42.152;24.744;2023-07-31T12:38:05;98838.84;;;33.89;nan
8758;BME280;4415;42.152;24.744;2023-07-31T12:40:31;98833.25;;;33.89;nan
8758;BME280;4415;42.152;24.744;2023-07-31T12:42:57;98829.84;;;33.94;nan
8758;BME280;4415;42.152;24.744;2023-07-31T12:45:22;98821.50;;;34.21;nan
8758;BME280;4415;42.152;24.744;2023-07-31T12:47:48;98831.44;;;34.04;nan
8758;BME280;4415;42.152;24.744;2023-07-31T12:50:14;98828.03;;;33.60;nan
8758;BME280;4415;42.152;24.744;2023-07-31T12:52:39;98813.81;;;33.94;nan
8758;BME280;4415;42.152;24.744;2023-07-31T12:55:05;98821.69;;;33.78;nan
8758;BME280;4415;42.152;24.744;2023-07-31T12:57:30;98829.84;;;33.94;nan
8758;BME280;4415;42.152;24.744;2023-07-31T12:59:56;98837.88;;;33.74;nan
8758;BME280;4415;42.152;24.744;2023-07-31T13:02:21;98827.00;;;33.76;nan
8758;BME280;4415;42.152;24.744;2023-07-31T13:04:48;98827.66;;;33.89;nan
8758;BME280;4415;42.152;24.744;2023-07-31T13:07:14;98825.41;;;33.66;nan
8758;BME280;4415;42.152;24.744;2023-07-31T13:09:39;98810.03;;;33.88;nan
8758;BME280;4415;42.152;24.744;2023-07-31T13:12:05;98811.63;;;33.89;nan
8758;BME280;4415;42.152;24.744;2023-07-31T13:14:30;98800.06;;;33.78;nan
8758;BME280;4415;42.152;24.744;2023-07-31T13:16:56;98820.72;;;33.63;nan
8758;BME280;4415;42.152;24.744;2023-07-31T13:19:21;98819.34;;;33.36;nan
8758;BME280;4415;42.152;24.744;2023-07-31T13:21:47;98813.63;;;33.40;nan
8758;BME280;4415;42.152;24.744;2023-07-31T13:24:12;98819.59;;;32.43;nan
8758;BME280;4415;42.152;24.744;2023-07-31T13:26:38;98812.75;;;32.56;nan
8758;BME280;4415;42.152;24.744;2023-07-31T13:29:03;98815.38;;;32.72;nan
8758;BME280;4415;42.152;24.744;2023-07-31T13:31:29;98814.81;;;32.43;nan
8758;BME280;4415;42.152;24.744;2023-07-31T13:33:54;98811.84;;;32.59;nan
8758;BME280;4415;42.152;24.744;2023-07-31T13:36:20;98815.63;;;32.65;nan
8758;BME280;4415;42.152;24.744;2023-07-31T13:38:45;98815.81;;;32.15;nan
8758;BME280;4415;42.152;24.744;2023-07-31T13:41:11;98808.47;;;31.70;nan
8758;BME280;4415;42.152;24.744;2023-07-31T13:43:36;98722.56;;;31.62;nan
8758;BME280;4415;42.152;24.744;2023-07-31T13:46:01;98798.09;;;31.58;nan
8758;BME280;4415;42.152;24.744;2023-07-31T13:48:33;98810.16;;;31.43;nan
8758;BME280;4415;42.152;24.744;2023-07-31T13:50:59;98803.13;;;30.55;nan
8758;BME280;4415;42.152;24.744;2023-07-31T13:53:25;98815.66;;;30.63;nan
8758;BME280;4415;42.152;24.744;2023-07-31T13:55:50;98804.13;;;30.49;nan
8758;BME280;4415;42.152;24.744;2023-07-31T13:58:15;98798.34;;;30.56;nan
8758;BME280;4415;42.152;24.744;2023-07-31T14:00:41;98800.59;;;30.61;nan
8758;BME280;4415;42.152;24.744;2023-07-31T14:03:07;98801.97;;;30.69;nan
8758;BME280;4415;42.152;24.744;2023-07-31T14:05:32;98788.06;;;30.53;nan
8758;BME280;4415;42.152;24.744;2023-07-31T14:07:58;98806.97;;;30.61;nan
8758;BME280;4415;42.152;24.744;2023-07-31T14:10:23;98807.91;;;30.84;nan
8758;BME280;4415;42.152;24.744;2023-07-31T14:12:49;98790.13;;;30.65;nan
8758;BME280;4415;42.152;24.744;2023-07-31T14:15:14;98797.47;;;30.59;nan
8758;BME280;4415;42.152;24.744;2023-07-31T14:17:40;98799.63;;;30.68;nan
8758;BME280;4415;42.152;24.744;2023-07-31T14:20:06;98816.84;;;30.50;nan
8758;BME280;4415;42.152;24.744;2023-07-31T14:22:31;98786.41;;;30.55;nan